Weather observations for the past three days for
Olive Branch, Olive Branch Airport
Imperial (Metric)
Date Time (cdt) Wind (mph) Vis. (mi.) Weather Sky Cond. Temperature (ºF) Relative Humidity Wind Chill (°F) Heat Index (°F) Pressure Precipitation (in)
Air Dwpt 6 hour altimeter (in) sea level (mb) 1 hr 3 hr 6 hr
Max. Min.
03 15:50 SW 13 G 18 10.00 Fair CLR 75.2 35.6 24% 76 30.05 0.0
03 14:50 SW 13 10.00 Fair CLR 73.4 35.6 25% 30.08 0.0
03 13:50 W 14 G 21 10.00 Fair CLR 71.6 37.4 29% 30.11 0.0
03 12:50 W 14 G 21 10.00 Fair CLR 71.6 39.2 31% 30.14 0.0
03 11:50 SW 12 10.00 Fair CLR 68 39.2 35% 30.17 0.0
03 10:50 S 8 10.00 Fair CLR 64.4 39.2 40% 30.18 0.0
03 08:50 S 6 10.00 Fair CLR 55.4 39.2 55% 30.18 0.0
03 07:50 S 8 10.00 Fair CLR 51.8 42.8 72% 30.18 0.0
03 06:50 S 5 10.00 Fair CLR 44.6 41 87% 43 30.17 0.0
03 06:35 S 5 10.00 Fair CLR 44.6 41 87% 43 30.16 0.0
03 06:15 S 3 10.00 Fair CLR 44.6 41 87% 30.15 0.0
03 05:55 Calm 10.00 Fair CLR 44.6 41 87% 30.14 0.0
03 05:35 Calm 10.00 Fair CLR 44.6 41 87% 30.14 0.0
03 05:15 Calm 10.00 Fair CLR 44.6 41 87% 30.14 0.0
03 04:55 SE 5 10.00 Fair CLR 46.4 41 82% 45 30.14 0.0
03 04:35 Calm 10.00 Fair CLR 46.4 41 82% 30.14 0.0
03 04:15 Calm 10.00 Fair CLR 46.4 41 82% 30.14 0.0
03 03:55 Calm 10.00 Fair CLR 46.4 41 82% 30.14 0.0
03 03:35 Calm 10.00 Fair CLR 46.4 41 82% 30.14 0.0
03 03:15 E 5 10.00 Fair CLR 48.2 41 76% 47 30.13 0.0
03 02:55 Calm 10.00 Fair CLR 48.2 39.2 71% 30.13 0.0
03 02:35 Calm 10.00 Fair CLR 48.2 39.2 71% 30.13 0.0
03 02:15 Calm 10.00 Fair CLR 50 41 71% 30.13 0.0
03 01:55 Calm 10.00 Fair CLR 50 39.2 67% 30.13 0.0
03 01:35 Calm 10.00 Fair CLR 50 39.2 67% 30.13 0.0
03 01:15 E 5 10.00 Fair CLR 51.8 39.2 62% 30.13 0.0
03 00:55 E 3 10.00 Fair CLR 51.8 39.2 62% 30.13 0.0
03 00:35 E 6 10.00 Fair CLR 51.8 39.2 62% 30.13 0.0
03 00:15 E 6 10.00 Fair CLR 53.6 39.2 58% 30.12 0.0
02 23:55 E 6 10.00 Fair CLR 53.6 39.2 58% 30.12 0.0
02 23:35 E 7 10.00 Fair CLR 55.4 37.4 51% 30.11 0.0
02 23:15 NE 7 G 13 10.00 Fair CLR 55.4 37.4 51% 30.11 0.0
02 22:55 NE 9 10.00 Fair CLR 57.2 37.4 48% 30.11 0.0
02 22:35 NE 8 G 15 10.00 Fair CLR 57.2 35.6 44% 30.1 0.0
02 22:15 NE 9 10.00 Fair CLR 57.2 33.8 41% 30.1 0.0
02 21:55 NE 6 10.00 Fair CLR 57.2 33.8 41% 30.09 0.0
02 21:35 N 6 10.00 Fair CLR 57.2 33.8 41% 30.08 0.0
02 21:15 N 6 10.00 Fair CLR 59 33.8 39% 30.08 0.0
02 19:50 N 7 10.00 Fair CLR 59 33.8 39% 30.05 0.0
02 18:50 NW 17 G 23 10.00 Partly Cloudy SCT085 66.2 32 28% 30.02 0.0
02 17:50 NW 17 G 23 10.00 Partly Cloudy SCT095 69.8 32 25% 30.02 0.0
02 16:50 NW 17 10.00 Partly Cloudy SCT080 71.6 33.8 25% 30.02 0.0
02 15:50 NW 13 G 24 10.00 Partly Cloudy FEW075 SCT085 69.8 33.8 27% 30.02 0.0
02 14:50 NW 9 G 18 10.00 Mostly Cloudy FEW075 BKN090 68 33.8 28% 30.04 0.0
02 13:50 W 10 G 17 10.00 Partly Cloudy SCT075 SCT090 69.8 35.6 29% 30.05 0.0
02 12:50 NW 13 G 21 10.00 Partly Cloudy FEW075 SCT095 68 33.8 28% 30.07 0.0
02 11:50 W 13 10.00 A Few Clouds FEW050 68 33.8 28% 30.08 0.0
02 10:50 NW 12 G 16 10.00 Fair CLR 66.2 33.8 30% 30.09 0.0
02 09:50 NW 6 10.00 Fair CLR 64.4 33.8 32% 30.08 0.0
02 08:50 E 3 10.00 Fair CLR 59 39.2 48% 30.08 0.0
02 07:50 N 3 10.00 Fair CLR 53.6 41 63% 30.06 0.0
02 06:50 Calm 10.00 Fair CLR 50 41 71% 30.04 0.0
02 06:35 Calm 10.00 Fair CLR 46.4 41 82% 30.04 0.0
02 06:15 Calm 10.00 Fair CLR 44.6 41 87% 30.04 0.0
02 05:55 Calm 10.00 Fair CLR 46.4 41 82% 30.03 0.0
02 05:35 Calm 10.00 Fair CLR 46.4 41 82% 30.02 0.0
02 05:15 Calm 10.00 Fair CLR 44.6 41 87% 30.02 0.0
02 04:55 Calm 10.00 Fair CLR 44.6 41 87% 30.02 0.0
02 04:35 Calm 10.00 Fair CLR 46.4 39.2 76% 30.02 0.0
02 04:15 Calm 10.00 Fair CLR 46.4 39.2 76% 30.02 0.0
02 03:55 Calm 10.00 Fair CLR 48.2 37.4 66% 30.01 0.0
02 03:35 Calm 10.00 Fair CLR 50 37.4 62% 30.01 0.0
02 03:15 NE 3 10.00 Fair CLR 48.2 39.2 71% 30.01 0.0
02 02:55 Calm 10.00 Fair CLR 50 39.2 67% 30.02 0.0
02 02:35 Calm 10.00 Fair CLR 51.8 35.6 54% 30.02 0.0
02 02:15 E 3 10.00 Fair CLR 53.6 33.8 47% 30.02 0.0
02 01:55 NE 5 10.00 Fair CLR 55.4 33.8 44% 30.02 0.0
02 01:35 Vrbl 5 10.00 Fair CLR 55.4 33.8 44% 30.03 0.0
02 01:15 NE 7 10.00 Fair CLR 55.4 33.8 44% 30.03 0.0
02 00:55 NE 7 10.00 Fair CLR 55.4 33.8 44% 30.04 0.0
02 00:35 NE 6 10.00 Fair CLR 55.4 33.8 44% 30.03 0.0
02 00:15 NE 6 10.00 Fair CLR 57.2 33.8 41% 30.02 0.0
01 23:55 NE 3 10.00 Fair CLR 55.4 33.8 44% 30.02 0.0
01 23:35 NE 5 10.00 Fair CLR 57.2 32 39% 30.02 0.0
01 23:15 NE 5 10.00 Fair CLR 57.2 32 39% 30.02 0.0
01 22:55 NE 5 10.00 Fair CLR 57.2 33.8 41% 30.01 0.0
01 22:35 NE 8 10.00 Fair CLR 57.2 33.8 41% 30.01 0.0
01 22:15 N 8 10.00 Fair CLR 57.2 33.8 41% 30 0.0
01 21:55 N 7 10.00 Fair CLR 55.4 35.6 47% 30.01 0.0
01 21:35 N 6 10.00 Fair CLR 57.2 35.6 44% 30.02 0.0
01 21:15 N 6 10.00 Fair CLR 55.4 37.4 51% 30.03 0.0
01 19:50 NE 6 10.00 Fair CLR 60.8 35.6 39% 29.99 0.0
01 18:50 NE 9 10.00 Fair CLR 62.6 35.6 37% 29.98 0.0
01 17:50 NE 9 10.00 Fair CLR 64.4 33.8 32% 29.96 0.0
01 16:50 NE 9 10.00 Fair CLR 64.4 37.4 37% 29.95 0.0
01 15:50 NE 9 10.00 Fair CLR 66.2 41 40% 29.96 0.0
01 14:50 N 6 10.00 Fair CLR 64.4 41 43% 29.99 0.0
01 13:50 N 7 G 14 10.00 Fair CLR 64.4 41 43% 30.02 0.0
01 12:50 NE 9 10.00 Fair CLR 64.4 41 43% 30.03 0.0
01 11:50 N 12 10.00 Fair CLR 62.6 41 45% 30.03 0.0
01 09:50 NE 8 10.00 Fair CLR 62.6 46.4 56% 30.03 0.0
01 08:50 N 8 10.00 Fair CLR 59 46.4 63% 30.03 0.0
01 07:50 N 8 10.00 Fair CLR 55.4 46.4 72% 30.02 0.0
01 06:50 N 6 10.00 Fair CLR 51.8 48.2 88% 30.01 0.0
01 06:35 N 5 10.00 Fair CLR 51.8 46.4 82% 30 0.0
01 06:15 Calm 10.00 Fair CLR 51.8 44.6 77% 30 0.0
01 05:55 Calm 10.00 Fair CLR 51.8 44.6 77% 30 0.0
01 05:35 Calm 10.00 Fair CLR 51.8 44.6 77% 29.99 0.0
01 05:15 Calm 10.00 Fair CLR 50 46.4 88% 29.99 0.0
01 04:55 N 3 10.00 Fair CLR 50 46.4 88% 29.98 0.0
01 04:35 N 5 10.00 Fair CLR 48.2 48.2 100% 47 29.98 0.0
01 04:15 Calm 10.00 Fair CLR 50 46.4 88% 29.98 0.0
01 03:55 Calm 10.00 Fair CLR 51.8 44.6 77% 29.98 0.0
01 03:35 Calm 10.00 Fair CLR 50 46.4 88% 29.98 0.0
01 03:15 N 3 10.00 Fair CLR 50 46.4 88% 29.98 0.0
01 02:55 Calm 10.00 Fair CLR 50 46.4 88% 29.98 0.0
01 02:35 Calm 10.00 Fair CLR 51.8 44.6 77% 29.98 0.0
01 02:15 Calm 10.00 Fair CLR 51.8 44.6 77% 29.98 0.0
01 01:55 Calm 10.00 Fair CLR 53.6 44.6 72% 29.98 0.0
01 01:35 N 3 10.00 Fair CLR 51.8 44.6 77% 29.99 0.0
01 01:15 N 3 10.00 Fair CLR 51.8 44.6 77% 29.99 0.0
01 00:55 N 3 10.00 Fair CLR 51.8 44.6 77% 29.99 0.0
01 00:35 N 3 10.00 Fair CLR 51.8 44.6 77% 29.99 0.0
01 00:15 NE 3 10.00 Fair CLR 51.8 42.8 72% 29.99 0.0
30 23:55 Calm 10.00 Fair CLR 53.6 42.8 67% 29.99 0.0
30 23:35 Calm 10.00 Fair CLR 53.6 42.8 67% 29.99 0.0
30 23:15 NE 3 10.00 Fair CLR 53.6 42.8 67% 30 0.0
30 22:55 NE 5 10.00 Fair CLR 53.6 42.8 67% 29.99 0.0
30 22:35 N 3 10.00 Fair CLR 55.4 42.8 63% 30 0.0
30 22:15 NE 3 10.00 Fair CLR 53.6 44.6 72% 30 0.0
30 21:55 N 3 10.00 Fair CLR 55.4 42.8 63% 30 0.0
30 21:35 NE 3 10.00 Fair CLR 55.4 42.8 63% 29.99 0.0
30 21:15 Calm 10.00 Fair CLR 57.2 42.8 59% 29.99 0.0
30 19:50 N 3 10.00 Fair CLR 57.2 41 55% 29.98 0.0
30 18:50 N 8 10.00 Fair CLR 60.8 39.2 45% 29.96 0.0
30 17:50 N 8 10.00 Fair CLR 62.6 39.2 42% 29.96 0.0
30 16:50 NE 10 G 16 10.00 Fair CLR 64.4 37.4 37% 29.95 0.0
Date Time (cdt) Wind (mph) Vis. (mi.) Weather Sky Cond. Air Dwpt Max. Min. Relative Humidity Wind Chill (°F) Heat Index (°F) altimeter (in) sea level (mb) 1 hr 3 hr 6 hr
6 hour
Temperature (ºF) Pressure Precipitation (in)